createdAt,value
2022-10-19T00:01:19.944Z,87.99
2022-10-19T00:06:25.814Z,89.07
2022-10-19T00:08:54.398Z,87.15
2022-10-19T00:11:23.634Z,88.53
2022-10-19T00:13:52.957Z,88.77
2022-10-19T00:16:21.165Z,87.87
2022-10-19T00:18:49.237Z,88.09
2022-10-19T00:21:18.931Z,86.44
2022-10-19T00:23:47.200Z,90.64
2022-10-19T00:26:14.990Z,86.85
2022-10-19T00:28:43.159Z,86.82
2022-10-19T00:31:14.315Z,84.89
2022-10-19T00:33:42.177Z,84.40
2022-10-19T00:36:22.027Z,82.86
2022-10-19T00:38:49.957Z,83.19
2022-10-19T00:41:18.951Z,86.15
2022-10-19T00:59:09.310Z,84.27
2022-10-19T01:01:37.216Z,85.32
2022-10-19T01:04:06.034Z,84.91
2022-10-19T01:06:34.099Z,84.26
2022-10-19T01:09:01.771Z,83.80
2022-10-19T01:11:38.677Z,85.00
2022-10-19T01:14:20.918Z,84.67
2022-10-19T01:16:53.601Z,84.83
2022-10-19T01:20:02.812Z,85.39
2022-10-19T01:22:37.458Z,85.78
2022-10-19T01:25:14.162Z,87.50
2022-10-19T01:28:04.860Z,86.62
2022-10-19T01:30:43.389Z,87.61
2022-10-19T01:33:20.304Z,87.70
2022-10-19T01:35:54.612Z,87.77
2022-10-19T01:38:27.314Z,86.37
2022-10-19T01:40:58.034Z,87.48
2022-10-19T01:43:33.911Z,87.77
2022-10-19T01:46:08.225Z,87.45
2022-10-19T01:48:37.193Z,86.65
2022-10-19T01:51:07.334Z,86.75
2022-10-19T01:53:38.953Z,86.77
2022-10-19T01:56:07.436Z,87.44
2022-10-19T01:58:37.161Z,88.61
2022-10-19T02:01:08.308Z,88.23
2022-10-19T02:03:37.428Z,87.34
2022-10-19T02:06:06.590Z,87.01
2022-10-19T02:08:39.204Z,86.85
2022-10-19T02:11:07.003Z,88.00
2022-10-19T02:13:34.723Z,87.45
2022-10-19T02:16:07.028Z,88.22
2022-10-19T02:18:38.605Z,87.70
2022-10-19T02:21:07.378Z,86.96
2022-10-19T02:23:35.464Z,87.39
2022-10-19T02:26:03.363Z,88.18
2022-10-19T02:28:31.373Z,88.17
2022-10-19T02:31:00.362Z,92.21
2022-10-19T02:33:30.145Z,89.26
2022-10-19T02:35:58.229Z,87.22
2022-10-19T02:38:26.320Z,87.51
2022-10-19T02:41:01.366Z,87.57
2022-10-19T02:43:29.622Z,87.77
2022-10-19T02:46:02.405Z,87.32
2022-10-19T02:48:33.658Z,86.70
2022-10-19T02:51:01.280Z,86.43
2022-10-19T02:53:29.669Z,87.14
2022-10-19T02:55:57.303Z,88.11
2022-10-19T02:58:24.932Z,88.76
2022-10-19T03:00:52.637Z,89.07
2022-10-19T03:03:20.272Z,88.50
2022-10-19T03:05:49.269Z,87.40
2022-10-19T03:08:16.914Z,87.97
2022-10-19T03:10:44.528Z,86.13
2022-10-19T03:13:12.162Z,86.87
2022-10-19T03:15:40.177Z,86.29
2022-10-19T03:18:07.816Z,87.69
2022-10-19T03:20:35.441Z,86.18
2022-10-19T03:23:04.761Z,86.11
2022-10-19T03:25:32.401Z,85.10
2022-10-19T03:28:00.166Z,84.73
2022-10-19T03:30:27.798Z,84.04
2022-10-19T03:32:55.549Z,84.71
2022-10-19T03:35:23.245Z,85.22
2022-10-19T03:37:50.889Z,84.85
2022-10-19T03:40:19.888Z,83.99
2022-10-19T03:42:47.533Z,84.36
2022-10-19T03:45:15.234Z,84.42
2022-10-19T03:47:42.892Z,84.07
2022-10-19T03:50:14.064Z,84.78
2022-10-19T03:52:41.725Z,84.29
2022-10-19T03:55:10.420Z,84.14
2022-10-19T03:57:39.419Z,83.93
2022-10-19T04:00:08.068Z,84.35
2022-10-19T04:02:35.728Z,85.03
2022-10-19T04:05:03.404Z,84.61
2022-10-19T04:07:31.200Z,85.84
2022-10-19T04:09:59.469Z,85.20
2022-10-19T04:12:27.124Z,85.83
2022-10-19T04:14:57.710Z,84.39
2022-10-19T04:17:26.367Z,86.20
2022-10-19T04:19:54.453Z,86.52
2022-10-19T04:22:22.077Z,84.68
2022-10-19T04:24:49.722Z,84.90
2022-10-19T04:27:17.406Z,84.74
2022-10-19T04:29:45.463Z,85.17
2022-10-19T04:32:14.497Z,84.17
2022-10-19T04:34:42.129Z,85.62
2022-10-19T04:37:09.762Z,84.89
2022-10-19T04:39:40.737Z,84.54
2022-10-19T04:42:08.412Z,82.97
2022-10-19T04:44:36.026Z,83.29
2022-10-19T04:47:03.720Z,83.18
2022-10-19T04:49:32.707Z,84.07
2022-10-19T04:52:00.318Z,83.23
2022-10-19T04:54:27.974Z,83.57
2022-10-19T04:56:55.602Z,83.50
2022-10-19T04:59:23.258Z,87.52
2022-10-19T05:01:50.967Z,85.04
2022-10-19T05:04:18.625Z,87.70
2022-10-19T05:06:47.707Z,86.17
2022-10-19T05:09:15.517Z,86.02
2022-10-19T05:11:43.133Z,84.27
2022-10-19T05:14:10.914Z,84.75
2022-10-19T05:16:38.611Z,86.51
2022-10-19T05:19:06.253Z,92.59
2022-10-19T05:21:34.145Z,94.04
2022-10-19T05:24:03.166Z,99.73
2022-10-19T05:26:30.822Z,100.00
2022-10-19T05:29:01.658Z,100.00
2022-10-19T05:31:31.146Z,100.00
2022-10-19T05:33:59.105Z,100.00
2022-10-19T05:36:28.245Z,98.42
2022-10-19T05:38:57.191Z,97.51
2022-10-19T05:41:27.554Z,100.00
2022-10-19T05:43:56.959Z,99.63
2022-10-19T05:46:25.292Z,97.27
2022-10-19T05:48:52.896Z,93.65
2022-10-19T05:51:22.061Z,91.21
2022-10-19T05:53:50.407Z,90.95
2022-10-19T05:56:19.613Z,91.54
2022-10-19T05:58:49.382Z,91.22
2022-10-19T06:01:18.897Z,89.58
2022-10-19T06:03:47.313Z,91.39
2022-10-19T06:06:15.136Z,89.43
2022-10-19T06:08:42.801Z,88.34
2022-10-19T06:11:12.403Z,87.37
2022-10-19T06:13:41.009Z,86.87
2022-10-19T06:16:11.094Z,89.06
2022-10-19T06:18:39.237Z,88.45
2022-10-19T06:21:10.929Z,88.40
2022-10-19T06:23:38.986Z,88.29
2022-10-19T06:26:08.930Z,87.75
2022-10-19T06:28:37.434Z,87.90
2022-10-19T06:31:08.427Z,88.21
2022-10-19T06:33:40.473Z,86.95
2022-10-19T06:36:08.658Z,87.38
2022-10-19T06:38:36.290Z,85.07
2022-10-19T06:41:04.062Z,85.26
2022-10-19T06:43:31.697Z,86.20
2022-10-19T06:45:59.676Z,89.87
2022-10-19T06:48:27.310Z,90.36
2022-10-19T06:51:00.400Z,89.31
2022-10-19T06:53:29.142Z,87.85
2022-10-19T06:55:58.585Z,86.92
2022-10-19T06:58:26.655Z,88.11
2022-10-19T07:00:58.135Z,88.07
2022-10-19T07:03:25.795Z,87.57
2022-10-19T07:05:54.699Z,86.49
2022-10-19T07:08:23.864Z,87.26
2022-10-19T07:10:52.465Z,86.18
2022-10-19T07:13:20.270Z,87.28
2022-10-19T07:15:48.037Z,88.60
2022-10-19T07:18:16.046Z,85.16
2022-10-19T07:20:43.694Z,84.29
2022-10-19T07:23:11.335Z,85.07
2022-10-19T07:25:40.298Z,84.51
2022-10-19T07:28:08.334Z,84.84
2022-10-19T07:30:38.992Z,83.44
2022-10-19T07:33:06.791Z,84.06
2022-10-19T07:35:34.542Z,82.02
2022-10-19T07:38:02.168Z,78.47
2022-10-19T07:40:29.894Z,76.37
2022-10-19T07:42:58.873Z,77.16
2022-10-19T07:45:26.517Z,73.32
2022-10-19T07:47:54.161Z,75.18
2022-10-19T07:50:23.025Z,77.98
2022-10-19T07:52:52.601Z,76.21
2022-10-19T07:55:20.430Z,77.77
2022-10-19T07:57:48.652Z,76.21
2022-10-19T08:00:18.297Z,77.65
2022-10-19T08:03:00.160Z,76.90
2022-10-19T08:05:33.641Z,74.53
2022-10-19T08:08:01.650Z,75.01
2022-10-19T08:10:29.289Z,76.52
2022-10-19T08:12:56.970Z,75.94
2022-10-19T08:15:26.581Z,75.50
2022-10-19T08:17:54.241Z,79.02
2022-10-19T08:20:21.917Z,75.50
2022-10-19T08:22:49.573Z,75.97
2022-10-19T08:25:17.270Z,73.27
2022-10-19T08:27:44.899Z,74.27
2022-10-19T08:30:12.713Z,72.78
2022-10-19T08:32:41.784Z,75.60
2022-10-19T08:35:10.795Z,73.88
2022-10-19T08:37:45.175Z,73.03
2022-10-19T08:40:18.333Z,71.45
2022-10-19T08:42:52.309Z,71.49
2022-10-19T08:45:28.536Z,71.27
2022-10-19T08:48:02.026Z,71.11
2022-10-19T08:50:34.113Z,68.91
2022-10-19T08:53:04.174Z,68.87
2022-10-19T08:55:42.098Z,67.79
2022-10-19T08:58:20.874Z,67.17
2022-10-19T09:00:50.733Z,66.47
2022-10-19T09:03:37.395Z,69.02
2022-10-19T09:06:19.878Z,65.58
2022-10-19T09:08:49.296Z,64.64
2022-10-19T09:11:19.124Z,62.61
2022-10-19T09:14:05.832Z,63.01
2022-10-19T09:16:34.717Z,60.25
2022-10-19T09:19:04.048Z,61.84
2022-10-19T09:21:47.107Z,60.87
2022-10-19T09:24:23.070Z,63.38
2022-10-19T09:26:53.737Z,63.34
2022-10-19T09:29:27.281Z,62.77
2022-10-19T09:34:35.066Z,61.71
2022-10-19T09:37:03.007Z,61.79
2022-10-19T09:39:31.943Z,60.99
2022-10-19T09:42:02.599Z,60.28
2022-10-19T09:44:31.501Z,57.43
2022-10-19T09:47:03.908Z,56.38
2022-10-19T09:49:41.852Z,56.08
2022-10-19T09:52:25.197Z,57.81
2022-10-19T09:55:01.069Z,55.18
2022-10-19T09:57:28.731Z,54.84
2022-10-19T09:59:56.405Z,55.43
2022-10-19T10:02:30.765Z,54.73
2022-10-19T10:05:06.374Z,55.06
2022-10-19T10:07:36.785Z,55.44
2022-10-19T10:10:11.455Z,56.11
2022-10-19T10:12:41.054Z,53.84
2022-10-19T10:15:09.506Z,54.46
2022-10-19T10:17:38.459Z,55.42
2022-10-19T10:20:20.835Z,56.20
2022-10-19T10:22:56.505Z,55.80
2022-10-19T10:25:27.764Z,54.09
2022-10-19T10:27:57.810Z,54.61
2022-10-19T10:30:25.486Z,54.82
2022-10-19T10:32:54.989Z,57.15
2022-10-19T10:35:26.484Z,56.17
2022-10-19T10:37:54.379Z,58.23
2022-10-19T10:40:24.550Z,56.76
2022-10-19T10:42:53.522Z,57.46
2022-10-19T10:45:25.161Z,57.13
2022-10-19T10:47:53.401Z,58.52
2022-10-19T10:50:25.330Z,59.05
2022-10-19T10:52:58.797Z,58.47
2022-10-19T10:55:26.905Z,58.94
2022-10-19T10:58:06.133Z,58.46
2022-10-19T11:00:35.502Z,57.00
2022-10-19T11:03:09.329Z,57.86
2022-10-19T11:05:42.185Z,56.23
2022-10-19T11:08:18.727Z,56.05
2022-10-19T11:10:51.197Z,54.76
2022-10-19T11:13:22.789Z,55.06
2022-10-19T11:15:54.944Z,53.75
2022-10-19T11:18:24.405Z,55.48
2022-10-19T11:21:02.326Z,55.26
2022-10-19T11:23:42.382Z,55.44
2022-10-19T11:26:30.356Z,55.84
2022-10-19T11:29:07.458Z,57.72
2022-10-19T11:31:41.489Z,56.60
2022-10-19T11:34:23.702Z,57.24
2022-10-19T11:36:58.066Z,56.53
2022-10-19T11:39:43.070Z,54.33
2022-10-19T11:42:15.857Z,53.89
2022-10-19T11:44:54.054Z,53.97
2022-10-19T11:47:51.018Z,56.57
2022-10-19T11:50:32.175Z,58.43
2022-10-19T11:53:06.396Z,58.11
2022-10-19T11:55:40.702Z,55.60
2022-10-19T11:58:25.441Z,54.12
2022-10-19T12:00:58.958Z,55.16
2022-10-19T12:04:00.057Z,53.77
2022-10-19T12:06:32.163Z,56.12
2022-10-19T12:09:18.292Z,55.08
2022-10-19T12:11:53.175Z,52.44
2022-10-19T12:14:23.468Z,54.67
2022-10-19T12:16:54.721Z,53.83
2022-10-19T12:19:24.174Z,52.46
2022-10-19T12:21:53.444Z,53.68
2022-10-19T12:24:24.791Z,53.96
2022-10-19T12:26:53.765Z,55.07
2022-10-19T12:29:24.483Z,55.04
2022-10-19T12:31:53.734Z,54.59
2022-10-19T12:34:33.042Z,54.26
2022-10-19T12:37:04.771Z,55.69
2022-10-19T12:39:37.678Z,54.60
2022-10-19T12:42:12.084Z,53.91
2022-10-19T12:44:58.838Z,54.95
2022-10-19T12:47:27.426Z,53.95
2022-10-19T12:49:56.096Z,54.03
2022-10-19T12:52:39.024Z,51.25
2022-10-19T12:55:30.792Z,52.80
2022-10-19T12:58:01.571Z,52.59
2022-10-19T13:00:32.049Z,52.98
2022-10-19T13:03:02.612Z,50.86
2022-10-19T13:05:31.940Z,51.85
2022-10-19T13:08:02.398Z,52.92
2022-10-19T13:10:32.780Z,53.16
2022-10-19T13:13:01.542Z,52.15
2022-10-19T13:15:56.464Z,52.47
2022-10-19T13:19:09.279Z,53.90
2022-10-19T13:21:54.844Z,51.98
2022-10-19T13:24:34.754Z,52.86
2022-10-19T13:27:39.574Z,51.66
2022-10-19T13:30:48.700Z,52.23
2022-10-19T13:33:45.365Z,52.37
2022-10-19T13:36:13.483Z,51.78
2022-10-19T13:38:42.083Z,53.39
2022-10-19T13:41:19.242Z,53.17
2022-10-19T13:43:59.089Z,54.70
2022-10-19T13:46:41.285Z,54.16
2022-10-19T13:49:44.834Z,54.21
2022-10-19T13:52:51.191Z,55.52
2022-10-19T13:55:46.440Z,51.77
2022-10-19T13:58:32.353Z,53.98
2022-10-19T14:01:10.369Z,54.98
2022-10-19T14:03:59.457Z,52.61
2022-10-19T14:06:28.800Z,53.99
2022-10-19T14:09:29.621Z,55.36
2022-10-19T14:12:06.283Z,53.45
2022-10-19T14:19:54.322Z,54.10
2022-10-19T14:22:25.889Z,54.27
2022-10-19T14:24:53.998Z,53.73
2022-10-19T14:27:24.699Z,55.72
2022-10-19T14:29:54.776Z,56.09
2022-10-19T14:32:25.693Z,56.44
2022-10-19T14:34:55.969Z,55.53
2022-10-19T14:37:25.742Z,55.99
2022-10-19T14:40:05.452Z,56.43
2022-10-19T14:42:40.993Z,54.73
2022-10-19T14:45:15.389Z,57.33
2022-10-19T14:47:59.019Z,59.97
2022-10-19T14:50:34.035Z,59.36
2022-10-19T14:53:05.209Z,57.57
2022-10-19T14:55:36.529Z,58.64
2022-10-19T14:58:07.056Z,57.63
2022-10-19T15:00:34.803Z,59.88
2022-10-19T15:03:05.329Z,60.08
2022-10-19T15:05:35.823Z,59.51
2022-10-19T15:08:09.704Z,59.99
2022-10-19T15:10:42.597Z,58.86
2022-10-19T15:13:20.333Z,59.79
2022-10-19T15:15:51.575Z,60.90
2022-10-19T15:18:43.525Z,59.85
2022-10-19T15:21:14.600Z,61.13
2022-10-19T15:23:43.963Z,58.59
2022-10-19T15:26:18.894Z,58.36
2022-10-19T15:28:47.183Z,60.94
2022-10-19T15:31:17.515Z,60.65
2022-10-19T15:33:49.066Z,59.83
2022-10-19T15:36:19.945Z,60.50
2022-10-19T15:38:48.842Z,59.65
2022-10-19T15:41:19.938Z,60.43
2022-10-19T15:43:50.278Z,60.65
2022-10-19T15:46:56.403Z,60.49
2022-10-19T15:49:56.434Z,59.93
2022-10-19T15:52:26.364Z,62.43
2022-10-19T15:54:56.377Z,60.35
2022-10-19T15:57:28.246Z,61.51
2022-10-19T15:59:57.478Z,62.19
2022-10-19T16:02:26.029Z,63.71
2022-10-19T16:04:54.092Z,62.11
2022-10-19T16:07:27.740Z,65.93
2022-10-19T16:09:55.631Z,65.62
2022-10-19T16:12:23.678Z,62.47
2022-10-19T16:14:51.547Z,64.38
2022-10-19T16:17:19.337Z,65.77
2022-10-19T16:19:47.201Z,67.17
2022-10-19T16:22:16.364Z,66.48
2022-10-19T16:24:45.370Z,68.28
2022-10-19T16:27:15.061Z,68.09
2022-10-19T16:29:43.246Z,68.03
2022-10-19T16:32:10.961Z,69.33
2022-10-19T16:34:38.626Z,71.79
2022-10-19T16:37:07.264Z,71.12
2022-10-19T16:39:35.520Z,73.15
2022-10-19T16:42:04.715Z,72.14
2022-10-19T16:44:32.887Z,72.37
2022-10-19T16:47:00.554Z,72.42
2022-10-19T16:49:28.244Z,75.53
2022-10-19T16:51:57.466Z,75.00
2022-10-19T16:54:26.472Z,75.16
2022-10-19T16:56:55.536Z,75.83
2022-10-19T16:59:24.584Z,75.42
2022-10-19T17:01:52.318Z,74.74
2022-10-19T17:04:19.953Z,79.30
2022-10-19T17:06:47.755Z,76.37
2022-10-19T17:09:41.275Z,75.85
2022-10-19T17:12:03.031Z,77.48
2022-10-19T17:14:32.021Z,76.32
2022-10-19T17:16:59.834Z,78.40
2022-10-19T17:19:27.767Z,76.96
2022-10-19T17:21:56.438Z,76.50
2022-10-19T17:24:24.481Z,74.34
2022-10-19T17:26:53.063Z,77.33
2022-10-19T17:29:21.161Z,74.29
2022-10-19T17:31:50.349Z,76.75
2022-10-19T17:34:18.698Z,80.00
2022-10-19T17:36:46.887Z,78.28
2022-10-19T17:39:17.643Z,79.57
2022-10-19T17:41:45.775Z,79.85
2022-10-19T17:44:13.962Z,78.44
2022-10-19T17:46:41.629Z,77.79
2022-10-19T17:49:10.856Z,79.07
2022-10-19T17:51:39.708Z,76.57
2022-10-19T17:54:09.500Z,77.33
2022-10-19T17:56:37.955Z,78.51
2022-10-19T17:59:07.904Z,75.73
2022-10-19T18:01:36.264Z,78.86
2022-10-19T18:04:04.010Z,77.38
2022-10-19T18:06:35.341Z,77.96
2022-10-19T18:09:05.529Z,75.82
2022-10-19T18:11:36.028Z,75.46
2022-10-19T18:14:05.109Z,79.74
2022-10-19T18:16:35.857Z,78.35
2022-10-19T18:19:04.873Z,77.60
2022-10-19T18:21:35.821Z,78.42
2022-10-19T18:24:04.063Z,75.78
2022-10-19T18:26:32.886Z,76.37
2022-10-19T18:29:02.182Z,79.45
2022-10-19T18:31:30.931Z,75.56
2022-10-19T18:33:59.773Z,74.44
2022-10-19T18:36:27.646Z,76.91
2022-10-19T18:38:58.089Z,77.07
2022-10-19T18:41:26.622Z,77.58
2022-10-19T18:43:55.518Z,78.93
2022-10-19T18:46:24.296Z,79.05
2022-10-19T18:48:52.467Z,77.87
2022-10-19T18:51:21.985Z,76.72
2022-10-19T18:53:49.978Z,77.50
2022-10-19T18:56:20.265Z,77.12
2022-10-19T18:58:48.074Z,78.04
2022-10-19T19:01:17.771Z,78.36
2022-10-19T19:03:47.446Z,77.90
2022-10-19T19:06:16.453Z,76.79
2022-10-19T19:11:19.721Z,76.98
2022-10-19T19:13:48.900Z,78.55
2022-10-19T19:16:16.581Z,77.55
2022-10-19T19:18:44.217Z,80.06
2022-10-19T19:21:15.514Z,77.62
2022-10-19T19:23:43.512Z,80.74
2022-10-19T19:26:12.904Z,80.45
2022-10-19T19:28:43.492Z,78.26
2022-10-19T19:31:15.834Z,77.73
2022-10-19T19:33:44.084Z,79.46
2022-10-19T19:36:14.029Z,80.20
2022-10-19T19:38:41.920Z,77.92
2022-10-19T19:41:12.450Z,77.93
2022-10-19T19:43:42.456Z,78.16
2022-10-19T19:46:13.006Z,79.62
2022-10-19T19:48:41.981Z,82.70
2022-10-19T19:51:10.234Z,84.11
2022-10-19T19:53:38.672Z,80.10
2022-10-19T19:56:07.464Z,80.08
2022-10-19T19:58:35.463Z,84.66
2022-10-19T20:01:12.424Z,81.54
2022-10-19T20:03:41.549Z,86.36
2022-10-19T20:06:09.798Z,82.05
2022-10-19T20:08:37.992Z,85.11
2022-10-19T20:11:07.364Z,84.60
2022-10-19T20:13:35.680Z,82.39
2022-10-19T20:16:09.757Z,82.90
2022-10-19T20:18:37.229Z,84.09
2022-10-19T20:21:06.071Z,86.73
2022-10-19T20:23:34.206Z,83.44
2022-10-19T20:26:01.835Z,86.56
2022-10-19T20:28:29.978Z,85.23
2022-10-19T20:31:01.921Z,84.35
2022-10-19T20:33:31.898Z,84.93
2022-10-19T20:36:04.349Z,86.90
2022-10-19T20:38:31.997Z,84.71
2022-10-19T20:41:01.056Z,82.87
2022-10-19T20:43:30.727Z,85.36
2022-10-19T20:46:03.237Z,86.67
2022-10-19T20:48:32.292Z,87.87
2022-10-19T20:51:09.753Z,86.15
2022-10-19T20:53:37.416Z,85.40
2022-10-19T20:56:06.415Z,88.99
2022-10-19T20:58:35.052Z,83.32
2022-10-19T21:01:07.658Z,85.26
2022-10-19T21:03:37.073Z,85.64
2022-10-19T21:06:06.256Z,91.90
2022-10-19T21:08:34.637Z,86.06
2022-10-19T21:11:02.320Z,88.87
2022-10-19T21:13:29.945Z,86.29
2022-10-19T21:15:57.606Z,85.67
2022-10-19T21:18:25.294Z,90.26
2022-10-19T21:20:54.298Z,89.39
2022-10-19T21:23:21.941Z,87.97
2022-10-19T21:25:55.568Z,87.39
2022-10-19T21:28:23.186Z,87.26
2022-10-19T21:30:50.807Z,87.56
2022-10-19T21:33:18.446Z,92.80
2022-10-19T21:35:46.163Z,88.35
2022-10-19T21:38:15.204Z,87.19
2022-10-19T21:40:42.838Z,86.88
2022-10-19T21:43:11.246Z,86.90
2022-10-19T21:45:38.921Z,90.45
2022-10-19T21:48:07.058Z,87.56
2022-10-19T21:50:34.712Z,89.74
2022-10-19T21:53:02.863Z,93.17
2022-10-19T21:55:35.756Z,91.76
2022-10-19T21:58:03.929Z,89.24
2022-10-19T22:00:31.773Z,96.83
2022-10-19T22:02:59.391Z,94.80
2022-10-19T22:05:27.033Z,92.28
2022-10-19T22:07:54.690Z,91.40
2022-10-19T22:10:22.444Z,89.04
2022-10-19T22:12:51.478Z,93.68
2022-10-19T22:15:19.286Z,90.98
2022-10-19T22:17:46.936Z,96.15
2022-10-19T22:20:14.602Z,94.29
2022-10-19T22:22:42.209Z,93.82
2022-10-19T22:25:10.278Z,92.22
2022-10-19T22:27:37.897Z,92.40
2022-10-19T22:30:08.126Z,90.65
2022-10-19T22:32:36.085Z,88.31
2022-10-19T22:35:04.912Z,93.60
2022-10-19T22:37:32.629Z,91.21
2022-10-19T22:40:00.280Z,94.34
2022-10-19T22:42:27.902Z,96.01
2022-10-19T22:44:55.530Z,94.97
2022-10-19T22:47:24.700Z,94.32
2022-10-19T22:49:52.323Z,94.96
2022-10-19T22:52:19.925Z,93.73
2022-10-19T22:54:47.560Z,95.70
2022-10-19T22:57:15.200Z,92.73
2022-10-19T22:59:42.985Z,94.92
2022-10-19T23:02:10.589Z,93.61
2022-10-19T23:04:39.582Z,96.00
2022-10-19T23:07:07.267Z,96.83
2022-10-19T23:09:34.949Z,90.76
2022-10-19T23:12:02.643Z,92.54
2022-10-19T23:14:30.366Z,98.81
2022-10-19T23:16:58.053Z,95.32
2022-10-19T23:19:25.745Z,97.09
2022-10-19T23:21:54.774Z,94.04
2022-10-19T23:24:22.577Z,95.50
2022-10-19T23:26:50.197Z,94.40
2022-10-19T23:29:17.801Z,96.13
2022-10-19T23:31:45.530Z,97.38
2022-10-19T23:34:13.157Z,95.58
2022-10-19T23:36:40.792Z,99.70
2022-10-19T23:39:09.768Z,97.25
2022-10-19T23:41:37.506Z,96.38
2022-10-19T23:44:06.189Z,95.09
2022-10-19T23:46:33.828Z,96.94
2022-10-19T23:49:01.451Z,94.58
2022-10-19T23:51:29.168Z,96.90
2022-10-19T23:53:56.867Z,99.27
2022-10-19T23:56:27.366Z,97.01
2022-10-19T23:58:55.323Z,95.34
